sensor_id;sensor_type;location;lat;lon;timestamp;pressure;altitude;pressure_sealevel;temperature;humidity
54588;BME280;40484;50.198;19.576;2023-02-20T00:00:35;102200.17;;;3.85;55.53
54588;BME280;40484;50.198;19.576;2023-02-20T00:05:38;102200.16;;;3.90;55.52
54588;BME280;40484;50.198;19.576;2023-02-20T00:10:39;102197.81;;;3.87;55.48
54588;BME280;40484;50.198;19.576;2023-02-20T00:15:41;102191.11;;;3.85;55.58
54588;BME280;40484;50.198;19.576;2023-02-20T00:20:42;102182.66;;;4.06;55.05
54588;BME280;40484;50.198;19.576;2023-02-20T00:25:44;102179.76;;;3.89;55.45
54588;BME280;40484;50.198;19.576;2023-02-20T00:30:45;102181.71;;;3.95;55.41
54588;BME280;40484;50.198;19.576;2023-02-20T00:35:47;102180.45;;;3.94;55.44
54588;BME280;40484;50.198;19.576;2023-02-20T00:40:48;102174.61;;;4.10;55.19
54588;BME280;40484;50.198;19.576;2023-02-20T00:45:50;102176.97;;;3.99;55.45
54588;BME280;40484;50.198;19.576;2023-02-20T00:50:51;102172.15;;;4.10;55.19
54588;BME280;40484;50.198;19.576;2023-02-20T00:55:52;102175.43;;;3.80;55.97
54588;BME280;40484;50.198;19.576;2023-02-20T01:00:54;102180.45;;;3.94;55.68
54588;BME280;40484;50.198;19.576;2023-02-20T01:05:56;102185.03;;;4.04;55.30
54588;BME280;40484;50.198;19.576;2023-02-20T01:10:57;102172.31;;;4.05;55.29
54588;BME280;40484;50.198;19.576;2023-02-20T01:15:59;102187.15;;;4.10;55.31
54588;BME280;40484;50.198;19.576;2023-02-20T01:21:00;102182.66;;;4.19;55.17
54588;BME280;40484;50.198;19.576;2023-02-20T01:26:26;102182.99;;;4.18;55.26
54588;BME280;40484;50.198;19.576;2023-02-20T01:31:28;102178.09;;;4.18;55.30
54588;BME280;40484;50.198;19.576;2023-02-20T01:36:30;102175.21;;;4.09;55.53
54588;BME280;40484;50.198;19.576;2023-02-20T01:41:31;102175.55;;;4.12;55.50
54588;BME280;40484;50.198;19.576;2023-02-20T01:51:44;102175.87;;;4.28;55.27
54588;BME280;40484;50.198;19.576;2023-02-20T01:56:46;102177.38;;;4.21;55.36
54588;BME280;40484;50.198;19.576;2023-02-20T02:01:49;102172.81;;;3.89;56.17
54588;BME280;40484;50.198;19.576;2023-02-20T02:06:51;102154.68;;;4.02;56.03
54588;BME280;40484;50.198;19.576;2023-02-20T02:11:54;102148.52;;;3.98;56.05
54588;BME280;40484;50.198;19.576;2023-02-20T02:44:24;102110.25;;;3.84;56.32
54588;BME280;40484;50.198;19.576;2023-02-20T02:54:39;102101.05;;;4.08;55.42
54588;BME280;40484;50.198;19.576;2023-02-20T02:59:41;102087.69;;;4.08;55.40
54588;BME280;40484;50.198;19.576;2023-02-20T03:05:13;102094.21;;;4.15;55.28
54588;BME280;40484;50.198;19.576;2023-02-20T03:10:17;102101.66;;;4.08;55.25
54588;BME280;40484;50.198;19.576;2023-02-20T03:15:24;102083.01;;;4.22;54.93
54588;BME280;40484;50.198;19.576;2023-02-20T03:20:47;102064.66;;;3.86;55.72
54588;BME280;40484;50.198;19.576;2023-02-20T03:25:53;102039.13;;;4.08;55.38
54588;BME280;40484;50.198;19.576;2023-02-20T03:30:55;102063.34;;;4.20;55.06
54588;BME280;40484;50.198;19.576;2023-02-20T03:35:58;102043.66;;;3.94;55.72
54588;BME280;40484;50.198;19.576;2023-02-20T03:41:39;102049.95;;;3.88;55.93
54588;BME280;40484;50.198;19.576;2023-02-20T03:47:46;102065.16;;;4.01;55.74
54588;BME280;40484;50.198;19.576;2023-02-20T03:52:47;102067.72;;;4.03;55.59
54588;BME280;40484;50.198;19.576;2023-02-20T03:57:54;102075.34;;;3.68;56.27
54588;BME280;40484;50.198;19.576;2023-02-20T04:02:58;102062.05;;;3.87;55.88
54588;BME280;40484;50.198;19.576;2023-02-20T04:08:17;102058.75;;;3.74;56.16
54588;BME280;40484;50.198;19.576;2023-02-20T04:13:18;102054.94;;;3.58;56.50
54588;BME280;40484;50.198;19.576;2023-02-20T04:18:21;102047.14;;;3.59;56.23
54588;BME280;40484;50.198;19.576;2023-02-20T04:23:24;102049.60;;;3.67;55.63
54588;BME280;40484;50.198;19.576;2023-02-20T04:28:26;102048.91;;;3.84;55.36
54588;BME280;40484;50.198;19.576;2023-02-20T04:33:28;102046.80;;;3.74;55.36
54588;BME280;40484;50.198;19.576;2023-02-20T04:38:30;102037.91;;;3.68;55.36
54588;BME280;40484;50.198;19.576;2023-02-20T04:43:31;102025.34;;;3.62;55.61
54588;BME280;40484;50.198;19.576;2023-02-20T04:48:33;102022.34;;;3.52;55.39
54588;BME280;40484;50.198;19.576;2023-02-20T04:53:34;102024.48;;;3.53;55.49
54588;BME280;40484;50.198;19.576;2023-02-20T04:58:36;102023.20;;;3.52;55.35
54588;BME280;40484;50.198;19.576;2023-02-20T05:03:37;102025.63;;;3.30;55.75
54588;BME280;40484;50.198;19.576;2023-02-20T05:08:39;102012.95;;;3.66;54.89
54588;BME280;40484;50.198;19.576;2023-02-20T05:14:05;101994.27;;;3.90;54.12
54588;BME280;40484;50.198;19.576;2023-02-20T05:19:07;101992.95;;;3.83;54.16
54588;BME280;40484;50.198;19.576;2023-02-20T05:24:09;101996.07;;;3.84;53.94
54588;BME280;40484;50.198;19.576;2023-02-20T05:29:10;101995.25;;;3.70;54.29
54588;BME280;40484;50.198;19.576;2023-02-20T05:34:13;101997.58;;;3.90;53.67
54588;BME280;40484;50.198;19.576;2023-02-20T05:39:14;101984.11;;;3.92;53.58
54588;BME280;40484;50.198;19.576;2023-02-20T05:44:16;101985.92;;;3.91;53.38
54588;BME280;40484;50.198;19.576;2023-02-20T05:49:17;101987.51;;;3.94;52.87
54588;BME280;40484;50.198;19.576;2023-02-20T05:54:19;102010.50;;;3.75;53.05
54588;BME280;40484;50.198;19.576;2023-02-20T05:59:22;102012.63;;;3.72;53.14
54588;BME280;40484;50.198;19.576;2023-02-20T06:04:24;102007.50;;;3.78;52.77
54588;BME280;40484;50.198;19.576;2023-02-20T06:09:25;102010.48;;;3.79;52.66
54588;BME280;40484;50.198;19.576;2023-02-20T06:14:26;102010.13;;;3.94;52.19
54588;BME280;40484;50.198;19.576;2023-02-20T06:19:28;102011.54;;;3.98;52.18
54588;BME280;40484;50.198;19.576;2023-02-20T06:24:29;102015.51;;;4.13;51.64
54588;BME280;40484;50.198;19.576;2023-02-20T06:29:31;102018.57;;;4.03;51.80
54588;BME280;40484;50.198;19.576;2023-02-20T06:34:33;102022.81;;;4.06;51.95
54588;BME280;40484;50.198;19.576;2023-02-20T06:39:34;102026.10;;;4.02;52.03
54588;BME280;40484;50.198;19.576;2023-02-20T06:44:36;102025.91;;;4.11;52.07
54588;BME280;40484;50.198;19.576;2023-02-20T06:49:37;102022.53;;;4.18;52.11
54588;BME280;40484;50.198;19.576;2023-02-20T06:54:39;101987.13;;;4.04;52.48
54588;BME280;40484;50.198;19.576;2023-02-20T07:00:09;101988.26;;;3.93;53.14
54588;BME280;40484;50.198;19.576;2023-02-20T07:05:11;101993.13;;;4.05;53.02
54588;BME280;40484;50.198;19.576;2023-02-20T07:10:12;101995.27;;;4.07;52.77
54588;BME280;40484;50.198;19.576;2023-02-20T07:15:14;101984.92;;;4.10;52.72
54588;BME280;40484;50.198;19.576;2023-02-20T07:20:16;101966.84;;;4.24;52.34
54588;BME280;40484;50.198;19.576;2023-02-20T07:25:17;101971.33;;;4.00;53.27
54588;BME280;40484;50.198;19.576;2023-02-20T07:30:19;101955.99;;;4.36;52.65
54588;BME280;40484;50.198;19.576;2023-02-20T07:35:20;101957.80;;;4.30;52.99
54588;BME280;40484;50.198;19.576;2023-02-20T07:40:22;101961.65;;;4.47;52.64
54588;BME280;40484;50.198;19.576;2023-02-20T07:45:23;101940.46;;;4.73;52.19
54588;BME280;40484;50.198;19.576;2023-02-20T07:50:25;101922.92;;;4.61;52.28
54588;BME280;40484;50.198;19.576;2023-02-20T07:55:26;101932.13;;;4.50;52.72
54588;BME280;40484;50.198;19.576;2023-02-20T08:00:28;101919.94;;;4.49;52.97
54588;BME280;40484;50.198;19.576;2023-02-20T08:05:29;101916.61;;;4.64;52.66
54588;BME280;40484;50.198;19.576;2023-02-20T08:10:31;101896.52;;;4.66;52.82
54588;BME280;40484;50.198;19.576;2023-02-20T08:15:32;101908.55;;;4.78;52.71
54588;BME280;40484;50.198;19.576;2023-02-20T08:20:34;101912.33;;;5.06;52.16
54588;BME280;40484;50.198;19.576;2023-02-20T08:25:35;101915.47;;;4.56;53.87
54588;BME280;40484;50.198;19.576;2023-02-20T08:30:37;101906.20;;;4.97;53.33
54588;BME280;40484;50.198;19.576;2023-02-20T08:35:38;101908.45;;;4.81;54.46
54588;BME280;40484;50.198;19.576;2023-02-20T08:40:40;101888.95;;;4.98;54.41
54588;BME280;40484;50.198;19.576;2023-02-20T08:45:41;101887.57;;;5.11;54.56
54588;BME280;40484;50.198;19.576;2023-02-20T08:51:08;101899.98;;;5.22;54.95
54588;BME280;40484;50.198;19.576;2023-02-20T08:56:10;101879.53;;;5.21;55.23
54588;BME280;40484;50.198;19.576;2023-02-20T09:01:12;101880.78;;;5.05;55.87
54588;BME280;40484;50.198;19.576;2023-02-20T09:06:14;101862.71;;;5.62;54.83
54588;BME280;40484;50.198;19.576;2023-02-20T09:11:15;101866.89;;;5.81;54.00
54588;BME280;40484;50.198;19.576;2023-02-20T09:16:22;101859.48;;;5.76;54.42
54588;BME280;40484;50.198;19.576;2023-02-20T09:21:23;101841.76;;;5.53;54.72
54588;BME280;40484;50.198;19.576;2023-02-20T09:26:25;101824.23;;;5.93;54.27
54588;BME280;40484;50.198;19.576;2023-02-20T09:31:26;101829.14;;;5.93;54.09
54588;BME280;40484;50.198;19.576;2023-02-20T09:36:28;101824.27;;;5.89;54.57
54588;BME280;40484;50.198;19.576;2023-02-20T09:46:51;101806.48;;;6.11;54.49
54588;BME280;40484;50.198;19.576;2023-02-20T09:51:58;101788.67;;;5.62;56.33
54588;BME280;40484;50.198;19.576;2023-02-20T09:57:09;101786.83;;;5.86;55.59
54588;BME280;40484;50.198;19.576;2023-02-20T10:02:14;101770.70;;;6.28;54.72
54588;BME280;40484;50.198;19.576;2023-02-20T10:07:47;101774.00;;;6.34;54.49
54588;BME280;40484;50.198;19.576;2023-02-20T10:28:05;101729.54;;;6.59;55.55
54588;BME280;40484;50.198;19.576;2023-02-20T10:33:19;101719.37;;;6.37;56.46
54588;BME280;40484;50.198;19.576;2023-02-20T10:38:21;101711.82;;;6.27;56.72
54588;BME280;40484;50.198;19.576;2023-02-20T10:48:34;101675.30;;;6.62;55.99
54588;BME280;40484;50.198;19.576;2023-02-20T10:53:48;101678.31;;;6.32;56.61
54588;BME280;40484;50.198;19.576;2023-02-20T10:59:06;101671.59;;;6.48;57.17
54588;BME280;40484;50.198;19.576;2023-02-20T11:04:15;101631.11;;;6.92;56.10
54588;BME280;40484;50.198;19.576;2023-02-20T11:09:41;101609.15;;;7.13;55.88
54588;BME280;40484;50.198;19.576;2023-02-20T11:14:45;101602.72;;;7.45;55.27
54588;BME280;40484;50.198;19.576;2023-02-20T11:19:50;101604.30;;;7.42;55.06
54588;BME280;40484;50.198;19.576;2023-02-20T11:24:51;101600.66;;;7.45;55.08
54588;BME280;40484;50.198;19.576;2023-02-20T11:29:55;101601.77;;;7.31;55.47
54588;BME280;40484;50.198;19.576;2023-02-20T11:40:29;101558.43;;;7.27;56.10
54588;BME280;40484;50.198;19.576;2023-02-20T11:45:30;101563.02;;;7.53;55.76
54588;BME280;40484;50.198;19.576;2023-02-20T11:50:46;101558.50;;;7.64;55.62
54588;BME280;40484;50.198;19.576;2023-02-20T11:55:49;101525.44;;;7.47;56.15
54588;BME280;40484;50.198;19.576;2023-02-20T12:00:53;101503.73;;;7.57;56.28
54588;BME280;40484;50.198;19.576;2023-02-20T12:05:56;101476.98;;;7.63;56.62
54588;BME280;40484;50.198;19.576;2023-02-20T12:11:26;101472.27;;;7.75;56.59
54588;BME280;40484;50.198;19.576;2023-02-20T12:16:43;101492.56;;;7.77;56.58
54588;BME280;40484;50.198;19.576;2023-02-20T12:21:57;101471.79;;;8.12;56.40
54588;BME280;40484;50.198;19.576;2023-02-20T12:26:58;101460.33;;;8.50;55.55
54588;BME280;40484;50.198;19.576;2023-02-20T12:32:03;101464.67;;;8.19;56.25
54588;BME280;40484;50.198;19.576;2023-02-20T12:37:18;101453.45;;;8.17;56.83
54588;BME280;40484;50.198;19.576;2023-02-20T12:42:32;101434.09;;;8.00;57.59
54588;BME280;40484;50.198;19.576;2023-02-20T12:47:40;101430.43;;;8.46;56.44
54588;BME280;40484;50.198;19.576;2023-02-20T13:09:19;101392.28;;;8.57;56.04
54588;BME280;40484;50.198;19.576;2023-02-20T13:19:28;101380.77;;;8.62;55.99
54588;BME280;40484;50.198;19.576;2023-02-20T13:24:31;101397.03;;;8.69;55.50
54588;BME280;40484;50.198;19.576;2023-02-20T13:34:41;101340.27;;;9.11;54.69
54588;BME280;40484;50.198;19.576;2023-02-20T13:39:44;101342.40;;;8.86;54.98
54588;BME280;40484;50.198;19.576;2023-02-20T13:45:34;101312.20;;;9.22;54.33
54588;BME280;40484;50.198;19.576;2023-02-20T13:50:33;101294.88;;;9.29;54.20
54588;BME280;40484;50.198;19.576;2023-02-20T13:55:35;101274.22;;;9.38;53.83
54588;BME280;40484;50.198;19.576;2023-02-20T14:00:50;101252.84;;;9.37;54.00
54588;BME280;40484;50.198;19.576;2023-02-20T14:06:13;101239.08;;;9.13;54.44
54588;BME280;40484;50.198;19.576;2023-02-20T14:16:31;101198.57;;;9.24;54.38
54588;BME280;40484;50.198;19.576;2023-02-20T14:21:34;101182.37;;;9.43;53.86
54588;BME280;40484;50.198;19.576;2023-02-20T14:26:36;101157.34;;;9.09;54.81
54588;BME280;40484;50.198;19.576;2023-02-20T14:32:04;101145.77;;;9.35;54.33
54588;BME280;40484;50.198;19.576;2023-02-20T14:37:23;101149.27;;;9.31;54.46
54588;BME280;40484;50.198;19.576;2023-02-20T14:42:24;101167.77;;;9.16;54.83
54588;BME280;40484;50.198;19.576;2023-02-20T14:47:26;101167.77;;;9.34;54.47
54588;BME280;40484;50.198;19.576;2023-02-20T14:52:28;101109.17;;;9.47;54.65
54588;BME280;40484;50.198;19.576;2023-02-20T14:57:30;101121.06;;;9.30;55.14
54588;BME280;40484;50.198;19.576;2023-02-20T15:02:32;101102.80;;;9.31;55.29
54588;BME280;40484;50.198;19.576;2023-02-20T15:07:36;101095.13;;;9.31;55.27
54588;BME280;40484;50.198;19.576;2023-02-20T15:12:38;101094.57;;;9.37;55.27
54588;BME280;40484;50.198;19.576;2023-02-20T15:17:42;101104.17;;;9.20;55.61
54588;BME280;40484;50.198;19.576;2023-02-20T15:22:44;101091.07;;;9.18;55.83
54588;BME280;40484;50.198;19.576;2023-02-20T15:28:12;101094.09;;;9.52;55.00
54588;BME280;40484;50.198;19.576;2023-02-20T15:33:13;101091.13;;;9.75;54.56
54588;BME280;40484;50.198;19.576;2023-02-20T15:38:40;101076.33;;;9.95;53.90
54588;BME280;40484;50.198;19.576;2023-02-20T15:43:42;101089.44;;;9.98;53.63
54588;BME280;40484;50.198;19.576;2023-02-20T15:48:43;101083.71;;;9.80;53.87
54588;BME280;40484;50.198;19.576;2023-02-20T15:53:45;101076.99;;;10.01;53.45
54588;BME280;40484;50.198;19.576;2023-02-20T15:58:47;101079.25;;;9.95;53.55
54588;BME280;40484;50.198;19.576;2023-02-20T16:03:49;101086.97;;;10.32;52.64
54588;BME280;40484;50.198;19.576;2023-02-20T16:08:51;101104.19;;;10.03;53.23
54588;BME280;40484;50.198;19.576;2023-02-20T16:13:57;101094.44;;;10.33;52.48
54588;BME280;40484;50.198;19.576;2023-02-20T16:19:00;101084.98;;;10.21;52.66
54588;BME280;40484;50.198;19.576;2023-02-20T16:24:02;101155.37;;;10.41;52.07
54588;BME280;40484;50.198;19.576;2023-02-20T16:29:11;101129.14;;;10.37;52.13
54588;BME280;40484;50.198;19.576;2023-02-20T16:34:10;101112.62;;;10.55;51.93
54588;BME280;40484;50.198;19.576;2023-02-20T16:39:11;101114.41;;;10.39;52.38
54588;BME280;40484;50.198;19.576;2023-02-20T16:49:19;101136.57;;;10.67;51.68
54588;BME280;40484;50.198;19.576;2023-02-20T16:54:20;101140.45;;;10.22;52.89
54588;BME280;40484;50.198;19.576;2023-02-20T16:59:22;101134.91;;;10.68;51.85
54588;BME280;40484;50.198;19.576;2023-02-20T17:04:23;101129.39;;;10.92;51.18
54588;BME280;40484;50.198;19.576;2023-02-20T17:09:25;101140.75;;;10.73;51.48
54588;BME280;40484;50.198;19.576;2023-02-20T17:14:52;101127.16;;;11.06;50.92
54588;BME280;40484;50.198;19.576;2023-02-20T17:19:54;101125.44;;;10.93;50.92
54588;BME280;40484;50.198;19.576;2023-02-20T17:24:57;101122.88;;;10.73;51.28
54588;BME280;40484;50.198;19.576;2023-02-20T17:29:58;101113.40;;;11.01;50.84
54588;BME280;40484;50.198;19.576;2023-02-20T17:35:00;101110.06;;;10.94;50.62
54588;BME280;40484;50.198;19.576;2023-02-20T17:40:02;101112.77;;;11.05;50.31
54588;BME280;40484;50.198;19.576;2023-02-20T17:45:05;101112.78;;;11.04;50.25
54588;BME280;40484;50.198;19.576;2023-02-20T17:50:07;101129.48;;;11.25;49.70
54588;BME280;40484;50.198;19.576;2023-02-20T17:55:15;101119.25;;;11.10;49.69
54588;BME280;40484;50.198;19.576;2023-02-20T18:00:12;101104.67;;;11.08;49.74
54588;BME280;40484;50.198;19.576;2023-02-20T18:05:14;101105.54;;;11.20;49.56
54588;BME280;40484;50.198;19.576;2023-02-20T18:10:17;101092.21;;;11.10;49.38
54588;BME280;40484;50.198;19.576;2023-02-20T18:15:19;101089.71;;;11.06;49.51
54588;BME280;40484;50.198;19.576;2023-02-20T18:20:20;101116.36;;;11.19;49.05
54588;BME280;40484;50.198;19.576;2023-02-20T18:25:22;101119.60;;;10.89;49.60
54588;BME280;40484;50.198;19.576;2023-02-20T18:30:25;101100.55;;;11.29;48.89
54588;BME280;40484;50.198;19.576;2023-02-20T18:35:27;101130.31;;;11.29;48.90
54588;BME280;40484;50.198;19.576;2023-02-20T18:40:29;101107.19;;;11.21;49.10
54588;BME280;40484;50.198;19.576;2023-02-20T18:45:30;101116.77;;;11.30;48.80
54588;BME280;40484;50.198;19.576;2023-02-20T18:50:32;101103.86;;;11.13;49.18
54588;BME280;40484;50.198;19.576;2023-02-20T18:56:00;101090.55;;;11.18;49.22
54588;BME280;40484;50.198;19.576;2023-02-20T19:01:02;101096.82;;;11.29;48.56
54588;BME280;40484;50.198;19.576;2023-02-20T19:06:03;101101.80;;;11.39;48.51
54588;BME280;40484;50.198;19.576;2023-02-20T19:11:06;101094.74;;;11.51;48.29
54588;BME280;40484;50.198;19.576;2023-02-20T19:16:07;101082.69;;;11.52;48.05
54588;BME280;40484;50.198;19.576;2023-02-20T19:21:09;101093.28;;;11.51;48.15
54588;BME280;40484;50.198;19.576;2023-02-20T19:26:12;101082.27;;;11.56;47.98
54588;BME280;40484;50.198;19.576;2023-02-20T19:31:13;101084.53;;;11.29;48.45
54588;BME280;40484;50.198;19.576;2023-02-20T19:36:15;101083.70;;;11.48;48.27
54588;BME280;40484;50.198;19.576;2023-02-20T19:41:17;101072.68;;;11.53;48.24
54588;BME280;40484;50.198;19.576;2023-02-20T19:46:21;101088.71;;;11.50;48.42
54588;BME280;40484;50.198;19.576;2023-02-20T19:51:22;101089.76;;;11.40;48.80
54588;BME280;40484;50.198;19.576;2023-02-20T19:56:24;101072.68;;;11.62;48.50
54588;BME280;40484;50.198;19.576;2023-02-20T20:01:25;101081.42;;;11.48;49.04
54588;BME280;40484;50.198;19.576;2023-02-20T20:06:27;101074.98;;;11.68;48.56
54588;BME280;40484;50.198;19.576;2023-02-20T20:11:28;101078.92;;;11.61;48.85
54588;BME280;40484;50.198;19.576;2023-02-20T20:16:30;101077.24;;;11.70;48.84
54588;BME280;40484;50.198;19.576;2023-02-20T20:21:33;101088.30;;;11.69;48.91
54588;BME280;40484;50.198;19.576;2023-02-20T20:26:35;101056.65;;;11.51;49.50
54588;BME280;40484;50.198;19.576;2023-02-20T20:31:38;101062.49;;;11.68;49.07
54588;BME280;40484;50.198;19.576;2023-02-20T20:36:40;101044.58;;;11.71;49.05
54588;BME280;40484;50.198;19.576;2023-02-20T20:42:06;101040.18;;;11.76;48.73
54588;BME280;40484;50.198;19.576;2023-02-20T20:47:07;101029.77;;;11.91;48.52
54588;BME280;40484;50.198;19.576;2023-02-20T20:52:09;101033.95;;;11.69;48.78
54588;BME280;40484;50.198;19.576;2023-02-20T20:57:10;101032.07;;;11.63;48.96
54588;BME280;40484;50.198;19.576;2023-02-20T21:02:13;101013.78;;;11.56;49.14
54588;BME280;40484;50.198;19.576;2023-02-20T21:07:15;101037.27;;;11.73;48.84
54588;BME280;40484;50.198;19.576;2023-02-20T21:12:18;101022.70;;;11.74;48.68
54588;BME280;40484;50.198;19.576;2023-02-20T21:17:19;101030.63;;;11.36;49.54
54588;BME280;40484;50.198;19.576;2023-02-20T21:22:21;101000.23;;;11.57;49.14
54588;BME280;40484;50.198;19.576;2023-02-20T21:27:24;101015.44;;;11.21;50.02
54588;BME280;40484;50.198;19.576;2023-02-20T21:32:25;101002.54;;;11.36;50.02
54588;BME280;40484;50.198;19.576;2023-02-20T21:37:27;101002.34;;;11.40;49.82
54588;BME280;40484;50.198;19.576;2023-02-20T21:42:28;100995.88;;;11.39;49.94
54588;BME280;40484;50.198;19.576;2023-02-20T21:48:08;101011.09;;;11.46;49.64
54588;BME280;40484;50.198;19.576;2023-02-20T21:53:09;101015.86;;;11.50;49.36
54588;BME280;40484;50.198;19.576;2023-02-20T21:58:37;100991.05;;;11.75;49.06
54588;BME280;40484;50.198;19.576;2023-02-20T22:04:03;100997.32;;;11.52;49.67
54588;BME280;40484;50.198;19.576;2023-02-20T22:09:07;100983.98;;;11.63;49.37
54588;BME280;40484;50.198;19.576;2023-02-20T22:14:47;100962.50;;;11.76;49.04
54588;BME280;40484;50.198;19.576;2023-02-20T22:20:51;100968.98;;;11.66;49.23
54588;BME280;40484;50.198;19.576;2023-02-20T22:26:31;100966.47;;;11.76;48.88
54588;BME280;40484;50.198;19.576;2023-02-20T22:32:11;100949.65;;;11.52;48.91
54588;BME280;40484;50.198;19.576;2023-02-20T22:38:15;100965.61;;;11.82;48.26
54588;BME280;40484;50.198;19.576;2023-02-20T22:43:55;100946.53;;;11.62;48.66
54588;BME280;40484;50.198;19.576;2023-02-20T22:49:35;100944.41;;;11.69;48.33
54588;BME280;40484;50.198;19.576;2023-02-20T22:55:39;100955.89;;;11.65;49.04
54588;BME280;40484;50.198;19.576;2023-02-20T23:01:19;100963.34;;;11.87;48.45
54588;BME280;40484;50.198;19.576;2023-02-20T23:06:59;100963.62;;;11.45;49.94
54588;BME280;40484;50.198;19.576;2023-02-20T23:13:05;100992.09;;;11.73;49.50
54588;BME280;40484;50.198;19.576;2023-02-20T23:18:44;100982.36;;;11.44;50.78
54588;BME280;40484;50.198;19.576;2023-02-20T23:24:24;100982.55;;;11.60;50.80
54588;BME280;40484;50.198;19.576;2023-02-20T23:30:28;100997.77;;;11.43;51.32
54588;BME280;40484;50.198;19.576;2023-02-20T23:36:08;100992.15;;;11.01;52.25
54588;BME280;40484;50.198;19.576;2023-02-20T23:41:48;100962.80;;;11.27;51.36
54588;BME280;40484;50.198;19.576;2023-02-20T23:47:52;101002.76;;;11.41;51.39
54588;BME280;40484;50.198;19.576;2023-02-20T23:53:36;100961.55;;;11.30;51.52
54588;BME280;40484;50.198;19.576;2023-02-20T23:59:16;100977.17;;;11.37;51.05
